Fatima, Brazil
Current Conditions -  °F | °C
As of 11:00 PM on Sunday 25 Jan 2015 (Local Time) from SBPJ Reporting Station
Overcast Overcast  
Wind Chill: 70°   Ceiling: 1500
Heat Index: 70°   Visibility: 6mi
Dew Point: 68°   Wind: 3mph
Humidity: 94%   Direction: 150°SSE
Pressure: 30.03"   Gusts: NA
Location:  10.76°S, 48.91°W
Report Text: SBPJ 260200Z 15003KT 9999 SCT006 BKN015 OVC100 21/20 Q1017
Loading
Personal Weather Stations






























Interactive Weather Map New forecast layout! Learn more

10-Day Weather Forecast

Advertisements
Track Severe Weather on mobile